UAL1923 KABQ-KSFO
Flight info
| Callsign | UAL1923 |
|---|---|
| Flight time | 2h 2m |
| Altitude | 28000 |
| Route | RDRNR3 GUP DCT BAVPE DCT BLD DCT BTY DCT RUSME DYAMD5 |
| Aircraft | B738/M-V/N |
Departure
| Time | 2026-05-04 00:34 |
|---|---|
| Airport | Albuquerque International Sunport (KABQ) |
Arrival
| Time | 2026-05-04 02:36 |
|---|---|
| Airport | San Francisco International Airport (KSFO) |
| Time | Latitude | Longitude | Altitude | Speed | Heading |
|---|---|---|---|---|---|
| 2026-05-04 00:11 | 35.04686 | -106.61692 | 5326 ft | 0 kts | 13° |
| 2026-05-04 00:22 | 35.04684 | -106.61693 | 5318 ft | 2 kts | 13° |
| 2026-05-04 00:22 | 35.04667 | -106.61698 | 5321 ft | 3 kts | 13° |
| 2026-05-04 00:22 | 35.04650 | -106.61703 | 5321 ft | 2 kts | 9° |
| 2026-05-04 00:22 | 35.04634 | -106.61699 | 5316 ft | 2 kts | 308° |
| 2026-05-04 00:23 | 35.04629 | -106.61690 | 5322 ft | 0 kts | 282° |
| 2026-05-04 00:26 | 35.04629 | -106.61713 | 5323 ft | 6 kts | 264° |
| 2026-05-04 00:27 | 35.04611 | -106.61760 | 5322 ft | 6 kts | 225° |
| 2026-05-04 00:27 | 35.04581 | -106.61797 | 5327 ft | 6 kts | 225° |
| 2026-05-04 00:27 | 35.04561 | -106.61840 | 5325 ft | 6 kts | 257° |
| 2026-05-04 00:27 | 35.04558 | -106.61892 | 5326 ft | 6 kts | 269° |
| 2026-05-04 00:28 | 35.04558 | -106.61950 | 5325 ft | 8 kts | 271° |
| 2026-05-04 00:28 | 35.04558 | -106.62041 | 5325 ft | 5 kts | 270° |
| 2026-05-04 00:28 | 35.04558 | -106.62052 | 5325 ft | 1 kts | 270° |
| 2026-05-04 00:28 | 35.04558 | -106.62053 | 5325 ft | 0 kts | 270° |
| 2026-05-04 00:31 | 35.04557 | -106.62076 | 5325 ft | 3 kts | 266° |
| 2026-05-04 00:31 | 35.04553 | -106.62105 | 5319 ft | 7 kts | 252° |
| 2026-05-04 00:31 | 35.04480 | -106.62141 | 5324 ft | 10 kts | 173° |
| 2026-05-04 00:32 | 35.04441 | -106.62107 | 5324 ft | 5 kts | 116° |
| 2026-05-04 00:32 | 35.04437 | -106.62080 | 5323 ft | 0 kts | 92° |
| 2026-05-04 00:32 | 35.04436 | -106.62080 | 5323 ft | 0 kts | 92° |
| 2026-05-04 00:32 | 35.04436 | -106.62068 | 5328 ft | 10 kts | 92° |
| 2026-05-04 00:33 | 35.04433 | -106.61667 | 5325 ft | 84 kts | 90° |
| 2026-05-04 00:33 | 35.04410 | -106.59206 | 5387 ft | 194 kts | 93° |
| 2026-05-04 00:33 | 35.04407 | -106.57399 | 5630 ft | 231 kts | 91° |
| 2026-05-04 00:34 | 35.04357 | -106.55274 | 5870 ft | 268 kts | 96° |
| 2026-05-04 00:34 | 35.04185 | -106.52923 | 6223 ft | 283 kts | 98° |
| 2026-05-04 00:34 | 35.04291 | -106.50535 | 6025 ft | 280 kts | 72° |
| 2026-05-04 00:34 | 35.05329 | -106.48748 | 6426 ft | 251 kts | 32° |
| 2026-05-04 00:35 | 35.06852 | -106.48170 | 6623 ft | 224 kts | 351° |
| 2026-05-04 00:35 | 35.08440 | -106.48643 | 6715 ft | 246 kts | 339° |
| 2026-05-04 00:35 | 35.10182 | -106.49221 | 6963 ft | 271 kts | 338° |
| 2026-05-04 00:35 | 35.11943 | -106.50247 | 7145 ft | 292 kts | 320° |
| 2026-05-04 00:36 | 35.13385 | -106.52067 | 7522 ft | 303 kts | 299° |
| 2026-05-04 00:36 | 35.14121 | -106.54449 | 7850 ft | 300 kts | 273° |
| 2026-05-04 00:36 | 35.13970 | -106.56961 | 8215 ft | 298 kts | 254° |
| 2026-05-04 00:36 | 35.13390 | -106.59382 | 8600 ft | 298 kts | 251° |
| 2026-05-04 00:37 | 35.12760 | -106.61804 | 8980 ft | 298 kts | 251° |
| 2026-05-04 00:37 | 35.12130 | -106.64216 | 9350 ft | 300 kts | 251° |
| 2026-05-04 00:37 | 35.11513 | -106.66617 | 9707 ft | 295 kts | 251° |
| 2026-05-04 00:37 | 35.10926 | -106.68933 | 10057 ft | 278 kts | 252° |
| 2026-05-04 00:38 | 35.10348 | -106.71229 | 10442 ft | 290 kts | 253° |
| 2026-05-04 00:38 | 35.09740 | -106.73641 | 10818 ft | 304 kts | 253° |
| 2026-05-04 00:38 | 35.09325 | -106.76184 | 11157 ft | 309 kts | 270° |
| 2026-05-04 00:38 | 35.09604 | -106.78784 | 11538 ft | 309 kts | 280° |
| 2026-05-04 00:39 | 35.10073 | -106.81349 | 11909 ft | 310 kts | 282° |
| 2026-05-04 00:39 | 35.10581 | -106.83914 | 12278 ft | 311 kts | 282° |
| 2026-05-04 00:39 | 35.11096 | -106.86483 | 12640 ft | 311 kts | 282° |
| 2026-05-04 00:39 | 35.11599 | -106.89019 | 12859 ft | 311 kts | 282° |
| 2026-05-04 00:40 | 35.12110 | -106.91622 | 13241 ft | 311 kts | 282° |
| 2026-05-04 00:40 | 35.12603 | -106.94161 | 13619 ft | 311 kts | 282° |
| 2026-05-04 00:40 | 35.13100 | -106.96742 | 13977 ft | 312 kts | 282° |
| 2026-05-04 00:40 | 35.13595 | -106.99330 | 14323 ft | 313 kts | 282° |
| 2026-05-04 00:41 | 35.14090 | -107.01931 | 14682 ft | 315 kts | 282° |
| 2026-05-04 00:41 | 35.14588 | -107.04551 | 15048 ft | 318 kts | 282° |
| 2026-05-04 00:41 | 35.15089 | -107.07204 | 15445 ft | 325 kts | 282° |
| 2026-05-04 00:41 | 35.15601 | -107.09914 | 15794 ft | 327 kts | 282° |
| 2026-05-04 00:42 | 35.16111 | -107.12622 | 16170 ft | 327 kts | 282° |
| 2026-05-04 00:42 | 35.16622 | -107.15330 | 16545 ft | 327 kts | 282° |
| 2026-05-04 00:42 | 35.17132 | -107.18043 | 16927 ft | 327 kts | 282° |
| 2026-05-04 00:42 | 35.17633 | -107.20714 | 17306 ft | 327 kts | 282° |
| 2026-05-04 00:43 | 35.18141 | -107.23427 | 17698 ft | 328 kts | 282° |
| 2026-05-04 00:43 | 35.18650 | -107.26149 | 18090 ft | 329 kts | 281° |
| 2026-05-04 00:43 | 35.19161 | -107.28884 | 18450 ft | 330 kts | 282° |
| 2026-05-04 00:43 | 35.19673 | -107.31626 | 18814 ft | 332 kts | 282° |
| 2026-05-04 00:44 | 35.20186 | -107.34379 | 19146 ft | 333 kts | 281° |
| 2026-05-04 00:44 | 35.20700 | -107.37142 | 19514 ft | 333 kts | 281° |
| 2026-05-04 00:44 | 35.21215 | -107.39916 | 19867 ft | 334 kts | 281° |
| 2026-05-04 00:44 | 35.21729 | -107.42688 | 20214 ft | 334 kts | 281° |
| 2026-05-04 00:45 | 35.22242 | -107.45458 | 20593 ft | 335 kts | 281° |
| 2026-05-04 00:45 | 35.22759 | -107.48252 | 20971 ft | 339 kts | 281° |
| 2026-05-04 00:45 | 35.23275 | -107.51047 | 21353 ft | 342 kts | 281° |
| 2026-05-04 00:45 | 35.23799 | -107.53884 | 21723 ft | 341 kts | 281° |
| 2026-05-04 00:46 | 35.24321 | -107.56713 | 22126 ft | 340 kts | 281° |
| 2026-05-04 00:46 | 35.24842 | -107.59538 | 22496 ft | 340 kts | 281° |
| 2026-05-04 00:46 | 35.25360 | -107.62360 | 22907 ft | 340 kts | 281° |
| 2026-05-04 00:46 | 35.25881 | -107.65206 | 23318 ft | 347 kts | 281° |
| 2026-05-04 00:47 | 35.26414 | -107.68121 | 23705 ft | 355 kts | 281° |
| 2026-05-04 00:47 | 35.26959 | -107.71100 | 24042 ft | 362 kts | 281° |
| 2026-05-04 00:47 | 35.27513 | -107.74136 | 24397 ft | 368 kts | 281° |
| 2026-05-04 00:47 | 35.28075 | -107.77215 | 24753 ft | 374 kts | 281° |
| 2026-05-04 00:48 | 35.28646 | -107.80348 | 25091 ft | 379 kts | 281° |
| 2026-05-04 00:48 | 35.29223 | -107.83519 | 25629 ft | 384 kts | 281° |
| 2026-05-04 00:48 | 35.29805 | -107.86720 | 25919 ft | 387 kts | 281° |
| 2026-05-04 00:48 | 35.30381 | -107.89898 | 26309 ft | 386 kts | 281° |
| 2026-05-04 00:49 | 35.30963 | -107.93107 | 26674 ft | 386 kts | 281° |
| 2026-05-04 00:49 | 35.31544 | -107.96317 | 27041 ft | 386 kts | 281° |
| 2026-05-04 00:49 | 35.32123 | -107.99524 | 27415 ft | 385 kts | 281° |
| 2026-05-04 00:49 | 35.32701 | -108.02730 | 27788 ft | 385 kts | 281° |
| 2026-05-04 00:50 | 35.33278 | -108.05938 | 28008 ft | 388 kts | 281° |
| 2026-05-04 00:50 | 35.33863 | -108.09205 | 27998 ft | 396 kts | 281° |
| 2026-05-04 00:50 | 35.34460 | -108.12537 | 27979 ft | 404 kts | 281° |
| 2026-05-04 00:50 | 35.35065 | -108.15925 | 27966 ft | 410 kts | 281° |
| 2026-05-04 00:51 | 35.35681 | -108.19379 | 27962 ft | 418 kts | 280° |
| 2026-05-04 00:51 | 35.36297 | -108.22836 | 27929 ft | 423 kts | 280° |
| 2026-05-04 00:51 | 35.36928 | -108.26376 | 27897 ft | 428 kts | 280° |
| 2026-05-04 00:51 | 35.37565 | -108.29957 | 27893 ft | 429 kts | 280° |
| 2026-05-04 00:52 | 35.38198 | -108.33517 | 27886 ft | 426 kts | 280° |
| 2026-05-04 00:52 | 35.38824 | -108.37048 | 27884 ft | 422 kts | 280° |
| 2026-05-04 00:52 | 35.39446 | -108.40562 | 27881 ft | 421 kts | 280° |
| 2026-05-04 00:52 | 35.39856 | -108.42885 | 27880 ft | 421 kts | 280° |
| 2026-05-04 00:53 | 35.39865 | -108.42939 | 27880 ft | 421 kts | 280° |
| 2026-05-04 00:53 | 35.40002 | -108.43714 | 27856 ft | 420 kts | 280° |
| 2026-05-04 00:54 | 35.40618 | -108.47212 | 27875 ft | 419 kts | 280° |
| 2026-05-04 00:54 | 35.41223 | -108.50655 | 27887 ft | 418 kts | 280° |
| 2026-05-04 00:54 | 35.41843 | -108.54186 | 27883 ft | 418 kts | 280° |
| 2026-05-04 00:54 | 35.42445 | -108.57624 | 27858 ft | 418 kts | 280° |
| 2026-05-04 00:55 | 35.43054 | -108.61105 | 27872 ft | 417 kts | 280° |
| 2026-05-04 00:55 | 35.43661 | -108.64582 | 27859 ft | 417 kts | 280° |
| 2026-05-04 00:55 | 35.44267 | -108.68058 | 27874 ft | 417 kts | 280° |
| 2026-05-04 00:55 | 35.44871 | -108.71534 | 27855 ft | 417 kts | 280° |
| 2026-05-04 00:56 | 35.45475 | -108.75014 | 28103 ft | 417 kts | 280° |
| 2026-05-04 00:56 | 35.46680 | -108.81965 | 28105 ft | 416 kts | 280° |
| 2026-05-04 00:57 | 35.47754 | -108.88939 | 28103 ft | 416 kts | 274° |
| 2026-05-04 00:57 | 35.48103 | -108.96022 | 28065 ft | 416 kts | 272° |
| 2026-05-04 00:58 | 35.48407 | -109.03015 | 28014 ft | 396 kts | 272° |
| 2026-05-04 00:58 | 35.48717 | -109.09767 | 28056 ft | 403 kts | 272° |
| 2026-05-04 00:59 | 35.49046 | -109.16748 | 28035 ft | 416 kts | 272° |
| 2026-05-04 00:59 | 35.49384 | -109.23885 | 28006 ft | 419 kts | 272° |
| 2026-05-04 00:59 | 35.49553 | -109.27451 | 27993 ft | 418 kts | 272° |
| 2026-05-04 01:00 | 35.49720 | -109.31010 | 27974 ft | 418 kts | 272° |
| 2026-05-04 01:00 | 35.49886 | -109.34567 | 27965 ft | 417 kts | 272° |
| 2026-05-04 01:00 | 35.50049 | -109.38070 | 27941 ft | 417 kts | 272° |
| 2026-05-04 01:00 | 35.50212 | -109.41619 | 27920 ft | 417 kts | 272° |
| 2026-05-04 01:01 | 35.50375 | -109.45172 | 27900 ft | 417 kts | 272° |
| 2026-05-04 01:01 | 35.50536 | -109.48721 | 27889 ft | 417 kts | 272° |
| 2026-05-04 01:01 | 35.50696 | -109.52271 | 27881 ft | 417 kts | 272° |
| 2026-05-04 01:01 | 35.50856 | -109.55825 | 27866 ft | 416 kts | 272° |
| 2026-05-04 01:02 | 35.51014 | -109.59374 | 27881 ft | 416 kts | 272° |
| 2026-05-04 01:02 | 35.51171 | -109.62920 | 27882 ft | 416 kts | 272° |
| 2026-05-04 01:02 | 35.51327 | -109.66476 | 27862 ft | 416 kts | 272° |
| 2026-05-04 01:02 | 35.51482 | -109.70029 | 27866 ft | 417 kts | 272° |
| 2026-05-04 01:03 | 35.51636 | -109.73578 | 27873 ft | 417 kts | 272° |
| 2026-05-04 01:03 | 35.51789 | -109.77130 | 27864 ft | 417 kts | 272° |
| 2026-05-04 01:03 | 35.51941 | -109.80686 | 27852 ft | 417 kts | 272° |
| 2026-05-04 01:03 | 35.52092 | -109.84238 | 27857 ft | 417 kts | 272° |
| 2026-05-04 01:04 | 35.52242 | -109.87802 | 27856 ft | 418 kts | 272° |
| 2026-05-04 01:04 | 35.52392 | -109.91364 | 27861 ft | 418 kts | 272° |
| 2026-05-04 01:04 | 35.52540 | -109.94928 | 27851 ft | 418 kts | 272° |
| 2026-05-04 01:04 | 35.52685 | -109.98453 | 27851 ft | 419 kts | 272° |
| 2026-05-04 01:05 | 35.52832 | -110.02032 | 27844 ft | 419 kts | 272° |
| 2026-05-04 01:05 | 35.52978 | -110.05606 | 27854 ft | 419 kts | 272° |
| 2026-05-04 01:05 | 35.53122 | -110.09176 | 27856 ft | 418 kts | 272° |
| 2026-05-04 01:05 | 35.53265 | -110.12745 | 27846 ft | 418 kts | 272° |
| 2026-05-04 01:06 | 35.53407 | -110.16313 | 27850 ft | 418 kts | 272° |
| 2026-05-04 01:06 | 35.53548 | -110.19876 | 27846 ft | 417 kts | 271° |
| 2026-05-04 01:06 | 35.53687 | -110.23427 | 27837 ft | 416 kts | 271° |
| 2026-05-04 01:06 | 35.53826 | -110.26981 | 27840 ft | 416 kts | 271° |
| 2026-05-04 01:07 | 35.53961 | -110.30533 | 27841 ft | 415 kts | 271° |
| 2026-05-04 01:07 | 35.54096 | -110.34072 | 27828 ft | 415 kts | 271° |
| 2026-05-04 01:07 | 35.54230 | -110.37566 | 27826 ft | 415 kts | 271° |
| 2026-05-04 01:07 | 35.54364 | -110.41109 | 27823 ft | 415 kts | 271° |
| 2026-05-04 01:08 | 35.54498 | -110.44651 | 27829 ft | 416 kts | 271° |
| 2026-05-04 01:08 | 35.54630 | -110.48204 | 27814 ft | 416 kts | 271° |
| 2026-05-04 01:08 | 35.54762 | -110.51755 | 27809 ft | 416 kts | 271° |
| 2026-05-04 01:08 | 35.54892 | -110.55309 | 27811 ft | 416 kts | 271° |
| 2026-05-04 01:09 | 35.55020 | -110.58856 | 27815 ft | 416 kts | 271° |
| 2026-05-04 01:09 | 35.55148 | -110.62404 | 27803 ft | 416 kts | 271° |
| 2026-05-04 01:09 | 35.55275 | -110.65957 | 27804 ft | 416 kts | 271° |
| 2026-05-04 01:09 | 35.55400 | -110.69507 | 27801 ft | 417 kts | 271° |
| 2026-05-04 01:10 | 35.55525 | -110.73067 | 27802 ft | 416 kts | 271° |
| 2026-05-04 01:10 | 35.55647 | -110.76571 | 27791 ft | 416 kts | 271° |
| 2026-05-04 01:10 | 35.55770 | -110.80125 | 27790 ft | 417 kts | 271° |
| 2026-05-04 01:10 | 35.55892 | -110.83689 | 27785 ft | 417 kts | 271° |
| 2026-05-04 01:11 | 35.56013 | -110.87247 | 27789 ft | 417 kts | 271° |
| 2026-05-04 01:11 | 35.56133 | -110.90810 | 27792 ft | 417 kts | 271° |
| 2026-05-04 01:11 | 35.56252 | -110.94370 | 27790 ft | 418 kts | 271° |
| 2026-05-04 01:11 | 35.56370 | -110.97941 | 27782 ft | 418 kts | 270° |
| 2026-05-04 01:12 | 35.56447 | -111.00307 | 27780 ft | 418 kts | 270° |
| 2026-05-04 01:12 | 35.56563 | -111.03872 | 27786 ft | 418 kts | 270° |
| 2026-05-04 01:12 | 35.56679 | -111.07447 | 27791 ft | 418 kts | 270° |
| 2026-05-04 01:12 | 35.56793 | -111.11021 | 27788 ft | 418 kts | 270° |
| 2026-05-04 01:13 | 35.56906 | -111.14592 | 27812 ft | 418 kts | 270° |
| 2026-05-04 01:13 | 35.57019 | -111.18169 | 27807 ft | 418 kts | 270° |
| 2026-05-04 01:13 | 35.57128 | -111.21691 | 27803 ft | 418 kts | 270° |
| 2026-05-04 01:13 | 35.57238 | -111.25262 | 27796 ft | 418 kts | 270° |
| 2026-05-04 01:14 | 35.57347 | -111.28839 | 27814 ft | 418 kts | 270° |
| 2026-05-04 01:14 | 35.57455 | -111.32401 | 27813 ft | 418 kts | 270° |
| 2026-05-04 01:14 | 35.57561 | -111.35968 | 27803 ft | 418 kts | 270° |
| 2026-05-04 01:14 | 35.57667 | -111.39534 | 27802 ft | 417 kts | 270° |
| 2026-05-04 01:15 | 35.57771 | -111.43094 | 27827 ft | 417 kts | 270° |
| 2026-05-04 01:15 | 35.57875 | -111.46652 | 27817 ft | 411 kts | 270° |
| 2026-05-04 01:15 | 35.57975 | -111.50088 | 27807 ft | 394 kts | 270° |
| 2026-05-04 01:15 | 35.58072 | -111.53462 | 27822 ft | 397 kts | 270° |
| 2026-05-04 01:16 | 35.58167 | -111.56891 | 27870 ft | 405 kts | 270° |
| 2026-05-04 01:16 | 35.58262 | -111.60365 | 27861 ft | 404 kts | 270° |
| 2026-05-04 01:16 | 35.58357 | -111.63739 | 27838 ft | 388 kts | 270° |
| 2026-05-04 01:16 | 35.58447 | -111.67014 | 27854 ft | 392 kts | 270° |
| 2026-05-04 01:17 | 35.58537 | -111.70396 | 27868 ft | 400 kts | 270° |
| 2026-05-04 01:17 | 35.58629 | -111.73844 | 27868 ft | 407 kts | 270° |
| 2026-05-04 01:17 | 35.58722 | -111.77351 | 27869 ft | 414 kts | 270° |
| 2026-05-04 01:17 | 35.58816 | -111.80915 | 27897 ft | 419 kts | 270° |
| 2026-05-04 01:18 | 35.58910 | -111.84500 | 27910 ft | 419 kts | 270° |
| 2026-05-04 01:18 | 35.59034 | -111.88067 | 27919 ft | 418 kts | 272° |
| 2026-05-04 01:18 | 35.59443 | -111.91609 | 27949 ft | 418 kts | 277° |
| 2026-05-04 01:18 | 35.59977 | -111.95124 | 27973 ft | 418 kts | 278° |
| 2026-05-04 01:19 | 35.60520 | -111.98628 | 27992 ft | 417 kts | 278° |
| 2026-05-04 01:19 | 35.61589 | -112.05595 | 28012 ft | 417 kts | 277° |
| 2026-05-04 01:20 | 35.62634 | -112.12568 | 28023 ft | 404 kts | 277° |
| 2026-05-04 01:20 | 35.63621 | -112.19250 | 28038 ft | 401 kts | 276° |
| 2026-05-04 01:20 | 35.64108 | -112.22588 | 27998 ft | 389 kts | 276° |
| 2026-05-04 01:21 | 35.64581 | -112.25817 | 27998 ft | 382 kts | 276° |
| 2026-05-04 01:21 | 35.65533 | -112.32395 | 27986 ft | 399 kts | 276° |
| 2026-05-04 01:21 | 35.66022 | -112.35788 | 27960 ft | 407 kts | 276° |
| 2026-05-04 01:22 | 35.66520 | -112.39244 | 27940 ft | 414 kts | 276° |
| 2026-05-04 01:22 | 35.67026 | -112.42754 | 27913 ft | 419 kts | 276° |
| 2026-05-04 01:22 | 35.67537 | -112.46298 | 27884 ft | 421 kts | 276° |
| 2026-05-04 01:22 | 35.68049 | -112.49845 | 27864 ft | 420 kts | 276° |
| 2026-05-04 01:23 | 35.68558 | -112.53376 | 27857 ft | 419 kts | 276° |
| 2026-05-04 01:23 | 35.69065 | -112.56908 | 27863 ft | 418 kts | 276° |
| 2026-05-04 01:23 | 35.69562 | -112.60384 | 27846 ft | 417 kts | 276° |
| 2026-05-04 01:23 | 35.70062 | -112.63901 | 27860 ft | 417 kts | 276° |
| 2026-05-04 01:24 | 35.70563 | -112.67416 | 27858 ft | 416 kts | 276° |
| 2026-05-04 01:24 | 35.71062 | -112.70927 | 27861 ft | 416 kts | 276° |
| 2026-05-04 01:24 | 35.71560 | -112.74442 | 27851 ft | 416 kts | 276° |
| 2026-05-04 01:24 | 35.72057 | -112.77950 | 27854 ft | 416 kts | 276° |
| 2026-05-04 01:25 | 35.72554 | -112.81467 | 27865 ft | 418 kts | 276° |
| 2026-05-04 01:25 | 35.73050 | -112.84993 | 27858 ft | 418 kts | 276° |
| 2026-05-04 01:25 | 35.73545 | -112.88521 | 27844 ft | 418 kts | 276° |
| 2026-05-04 01:25 | 35.74039 | -112.92049 | 27848 ft | 418 kts | 276° |
| 2026-05-04 01:26 | 35.74532 | -112.95572 | 27843 ft | 418 kts | 276° |
| 2026-05-04 01:26 | 35.75024 | -112.99096 | 27830 ft | 418 kts | 276° |
| 2026-05-04 01:26 | 35.75514 | -113.02618 | 27833 ft | 417 kts | 276° |
| 2026-05-04 01:26 | 35.76003 | -113.06140 | 27827 ft | 418 kts | 276° |
| 2026-05-04 01:27 | 35.76492 | -113.09663 | 27815 ft | 417 kts | 276° |
| 2026-05-04 01:27 | 35.76979 | -113.13187 | 27809 ft | 416 kts | 276° |
| 2026-05-04 01:27 | 35.77464 | -113.16701 | 27804 ft | 416 kts | 276° |
| 2026-05-04 01:27 | 35.77941 | -113.20166 | 27810 ft | 416 kts | 276° |
| 2026-05-04 01:28 | 35.78424 | -113.23682 | 27770 ft | 416 kts | 275° |
| 2026-05-04 01:28 | 35.78906 | -113.27184 | 27801 ft | 414 kts | 276° |
| 2026-05-04 01:28 | 35.79382 | -113.30688 | 27757 ft | 415 kts | 276° |
| 2026-05-04 01:28 | 35.79862 | -113.34197 | 27788 ft | 415 kts | 276° |
| 2026-05-04 01:29 | 35.80339 | -113.37706 | 27754 ft | 416 kts | 276° |
| 2026-05-04 01:29 | 35.80817 | -113.41221 | 27761 ft | 416 kts | 276° |
| 2026-05-04 01:29 | 35.81294 | -113.44739 | 27755 ft | 416 kts | 276° |
| 2026-05-04 01:29 | 35.81770 | -113.48258 | 27774 ft | 417 kts | 276° |
| 2026-05-04 01:30 | 35.82245 | -113.51782 | 27758 ft | 417 kts | 275° |
| 2026-05-04 01:30 | 35.82720 | -113.55315 | 27749 ft | 418 kts | 275° |
| 2026-05-04 01:30 | 35.83205 | -113.58849 | 27698 ft | 417 kts | 275° |
| 2026-05-04 01:30 | 35.83635 | -113.62297 | 27685 ft | 394 kts | 274° |
| 2026-05-04 01:31 | 35.83976 | -113.65557 | 27678 ft | 375 kts | 272° |
| 2026-05-04 01:31 | 35.84382 | -113.68703 | 27687 ft | 381 kts | 277° |
| 2026-05-04 01:31 | 35.84912 | -113.71909 | 27758 ft | 384 kts | 276° |
| 2026-05-04 01:31 | 35.85387 | -113.75181 | 27750 ft | 391 kts | 276° |
| 2026-05-04 01:32 | 35.85880 | -113.78516 | 27709 ft | 399 kts | 275° |
| 2026-05-04 01:32 | 35.86314 | -113.81927 | 27708 ft | 405 kts | 275° |
| 2026-05-04 01:32 | 35.86750 | -113.85386 | 27716 ft | 412 kts | 275° |
| 2026-05-04 01:32 | 35.87198 | -113.88902 | 27711 ft | 417 kts | 275° |
| 2026-05-04 01:33 | 35.87653 | -113.92435 | 27713 ft | 417 kts | 275° |
| 2026-05-04 01:33 | 35.88113 | -113.95966 | 27711 ft | 416 kts | 275° |
| 2026-05-04 01:33 | 35.88573 | -113.99485 | 27698 ft | 415 kts | 275° |
| 2026-05-04 01:33 | 35.89031 | -114.02997 | 27680 ft | 415 kts | 275° |
| 2026-05-04 01:34 | 35.89483 | -114.06463 | 27689 ft | 414 kts | 275° |
| 2026-05-04 01:34 | 35.89940 | -114.09974 | 27675 ft | 414 kts | 275° |
| 2026-05-04 01:34 | 35.90394 | -114.13476 | 27678 ft | 413 kts | 275° |
| 2026-05-04 01:34 | 35.90849 | -114.16972 | 27669 ft | 412 kts | 275° |
| 2026-05-04 01:35 | 35.91299 | -114.20468 | 27665 ft | 412 kts | 275° |
| 2026-05-04 01:35 | 35.91746 | -114.23952 | 27662 ft | 411 kts | 275° |
| 2026-05-04 01:35 | 35.92193 | -114.27436 | 27663 ft | 411 kts | 275° |
| 2026-05-04 01:35 | 35.92639 | -114.30921 | 27659 ft | 411 kts | 275° |
| 2026-05-04 01:36 | 35.93084 | -114.34410 | 27662 ft | 412 kts | 275° |
| 2026-05-04 01:36 | 35.93522 | -114.37856 | 27663 ft | 412 kts | 275° |
| 2026-05-04 01:36 | 35.93966 | -114.41352 | 27667 ft | 407 kts | 275° |
| 2026-05-04 01:36 | 35.94398 | -114.44729 | 27648 ft | 390 kts | 275° |
| 2026-05-04 01:37 | 35.94818 | -114.48042 | 27678 ft | 393 kts | 275° |
| 2026-05-04 01:37 | 35.95240 | -114.51408 | 27685 ft | 400 kts | 275° |
| 2026-05-04 01:37 | 35.95669 | -114.54833 | 27704 ft | 407 kts | 275° |
| 2026-05-04 01:37 | 35.96105 | -114.58312 | 27707 ft | 412 kts | 275° |
| 2026-05-04 01:38 | 35.96545 | -114.61819 | 27725 ft | 415 kts | 275° |
| 2026-05-04 01:38 | 35.96986 | -114.65339 | 27731 ft | 415 kts | 275° |
| 2026-05-04 01:38 | 35.97427 | -114.68871 | 27739 ft | 416 kts | 275° |
| 2026-05-04 01:38 | 35.97862 | -114.72358 | 27738 ft | 416 kts | 275° |
| 2026-05-04 01:39 | 35.98302 | -114.75891 | 27737 ft | 416 kts | 275° |
| 2026-05-04 01:39 | 35.98738 | -114.79414 | 27782 ft | 415 kts | 275° |
| 2026-05-04 01:39 | 35.99196 | -114.82946 | 27759 ft | 417 kts | 277° |
| 2026-05-04 01:39 | 35.99954 | -114.86419 | 27755 ft | 420 kts | 283° |
| 2026-05-04 01:40 | 36.01035 | -114.89796 | 27754 ft | 425 kts | 290° |
| 2026-05-04 01:40 | 36.02439 | -114.93024 | 27761 ft | 427 kts | 292° |
| 2026-05-04 01:40 | 36.03874 | -114.96245 | 27742 ft | 428 kts | 292° |
| 2026-05-04 01:40 | 36.05289 | -114.99432 | 27749 ft | 427 kts | 292° |
| 2026-05-04 01:41 | 36.06714 | -115.02658 | 27781 ft | 427 kts | 292° |
| 2026-05-04 01:41 | 36.08133 | -115.05887 | 27777 ft | 426 kts | 292° |
| 2026-05-04 01:41 | 36.09542 | -115.09101 | 27772 ft | 426 kts | 292° |
| 2026-05-04 01:41 | 36.10951 | -115.12327 | 27775 ft | 425 kts | 292° |
| 2026-05-04 01:42 | 36.12358 | -115.15553 | 27772 ft | 425 kts | 292° |
| 2026-05-04 01:42 | 36.13763 | -115.18778 | 27796 ft | 425 kts | 292° |
| 2026-05-04 01:42 | 36.15162 | -115.21997 | 27762 ft | 425 kts | 292° |
| 2026-05-04 01:42 | 36.16563 | -115.25220 | 27760 ft | 425 kts | 291° |
| 2026-05-04 01:43 | 36.17964 | -115.28447 | 27754 ft | 425 kts | 291° |
| 2026-05-04 01:43 | 36.19363 | -115.31671 | 27761 ft | 425 kts | 291° |
| 2026-05-04 01:43 | 36.20745 | -115.34859 | 27756 ft | 425 kts | 292° |
| 2026-05-04 01:43 | 36.22143 | -115.38089 | 27757 ft | 425 kts | 292° |
| 2026-05-04 01:44 | 36.23540 | -115.41319 | 27785 ft | 426 kts | 292° |
| 2026-05-04 01:44 | 36.24936 | -115.44552 | 27780 ft | 426 kts | 292° |
| 2026-05-04 01:44 | 36.26334 | -115.47790 | 27789 ft | 426 kts | 292° |
| 2026-05-04 01:44 | 36.27732 | -115.51025 | 27780 ft | 426 kts | 292° |
| 2026-05-04 01:45 | 36.29131 | -115.54271 | 27796 ft | 426 kts | 292° |
| 2026-05-04 01:45 | 36.30523 | -115.57514 | 27784 ft | 426 kts | 291° |
| 2026-05-04 01:45 | 36.33313 | -115.64006 | 27794 ft | 426 kts | 292° |
| 2026-05-04 01:46 | 36.34703 | -115.67248 | 27775 ft | 426 kts | 291° |
| 2026-05-04 01:46 | 36.36096 | -115.70494 | 27792 ft | 426 kts | 291° |
| 2026-05-04 01:46 | 36.37490 | -115.73740 | 27791 ft | 426 kts | 291° |
| 2026-05-04 01:46 | 36.38865 | -115.76949 | 27762 ft | 425 kts | 291° |
| 2026-05-04 01:47 | 36.40264 | -115.80222 | 27769 ft | 423 kts | 291° |
| 2026-05-04 01:47 | 36.41627 | -115.83411 | 27781 ft | 425 kts | 291° |
| 2026-05-04 01:47 | 36.43014 | -115.86664 | 27796 ft | 426 kts | 291° |
| 2026-05-04 01:47 | 36.44402 | -115.89926 | 27750 ft | 428 kts | 291° |
| 2026-05-04 01:48 | 36.45798 | -115.93203 | 27753 ft | 429 kts | 291° |
| 2026-05-04 01:48 | 36.47195 | -115.96488 | 27726 ft | 430 kts | 291° |
| 2026-05-04 01:48 | 36.48573 | -115.99768 | 27736 ft | 426 kts | 290° |
| 2026-05-04 01:48 | 36.49939 | -116.03041 | 27706 ft | 428 kts | 291° |
| 2026-05-04 01:49 | 36.51335 | -116.06310 | 27706 ft | 428 kts | 291° |
| 2026-05-04 01:49 | 36.52735 | -116.09578 | 27712 ft | 428 kts | 291° |
| 2026-05-04 01:49 | 36.54130 | -116.12850 | 27713 ft | 428 kts | 291° |
| 2026-05-04 01:49 | 36.55524 | -116.16135 | 27705 ft | 428 kts | 291° |
| 2026-05-04 01:50 | 36.56910 | -116.19410 | 27723 ft | 428 kts | 291° |
| 2026-05-04 01:50 | 36.58304 | -116.22713 | 27705 ft | 430 kts | 291° |
| 2026-05-04 01:50 | 36.59677 | -116.25972 | 27722 ft | 432 kts | 291° |
| 2026-05-04 01:50 | 36.61073 | -116.29289 | 27695 ft | 432 kts | 291° |
| 2026-05-04 01:51 | 36.62469 | -116.32608 | 27701 ft | 432 kts | 291° |
| 2026-05-04 01:51 | 36.63862 | -116.35920 | 27703 ft | 432 kts | 291° |
| 2026-05-04 01:51 | 36.65253 | -116.39232 | 27686 ft | 432 kts | 291° |
| 2026-05-04 01:51 | 36.66647 | -116.42553 | 27683 ft | 431 kts | 291° |
| 2026-05-04 01:52 | 36.68036 | -116.45868 | 27689 ft | 431 kts | 291° |
| 2026-05-04 01:52 | 36.69424 | -116.49183 | 27698 ft | 431 kts | 291° |
| 2026-05-04 01:52 | 36.70792 | -116.52456 | 27682 ft | 431 kts | 291° |
| 2026-05-04 01:52 | 36.72180 | -116.55779 | 27692 ft | 433 kts | 291° |
| 2026-05-04 01:53 | 36.73571 | -116.59113 | 27701 ft | 433 kts | 291° |
| 2026-05-04 01:53 | 36.74963 | -116.62452 | 27699 ft | 433 kts | 292° |
| 2026-05-04 01:53 | 36.76355 | -116.65788 | 27699 ft | 434 kts | 291° |
| 2026-05-04 01:53 | 36.77749 | -116.69140 | 27687 ft | 435 kts | 291° |
| 2026-05-04 01:54 | 36.79217 | -116.72446 | 27678 ft | 439 kts | 297° |
| 2026-05-04 01:54 | 36.81011 | -116.75503 | 27693 ft | 445 kts | 303° |
| 2026-05-04 01:54 | 36.83158 | -116.78329 | 27682 ft | 454 kts | 310° |
| 2026-05-04 01:54 | 36.85531 | -116.80931 | 27692 ft | 455 kts | 311° |
| 2026-05-04 01:55 | 36.87931 | -116.83534 | 27701 ft | 460 kts | 313° |
| 2026-05-04 01:55 | 36.90360 | -116.86175 | 27713 ft | 465 kts | 313° |
| 2026-05-04 01:55 | 36.92804 | -116.88845 | 27714 ft | 466 kts | 312° |
| 2026-05-04 01:55 | 36.95234 | -116.91510 | 27712 ft | 463 kts | 312° |
| 2026-05-04 01:56 | 36.97646 | -116.94166 | 27698 ft | 460 kts | 312° |
| 2026-05-04 01:56 | 37.00041 | -116.96812 | 27725 ft | 459 kts | 312° |
| 2026-05-04 01:56 | 37.02431 | -116.99460 | 27707 ft | 459 kts | 312° |
| 2026-05-04 01:56 | 37.04823 | -117.02117 | 27708 ft | 463 kts | 313° |
| 2026-05-04 01:57 | 37.07248 | -117.04815 | 27738 ft | 469 kts | 313° |
| 2026-05-04 01:57 | 37.09677 | -117.07520 | 27730 ft | 474 kts | 313° |
| 2026-05-04 01:57 | 37.12145 | -117.10267 | 27715 ft | 473 kts | 313° |
| 2026-05-04 01:57 | 37.14604 | -117.13003 | 27711 ft | 472 kts | 313° |
| 2026-05-04 01:58 | 37.17065 | -117.15741 | 27728 ft | 472 kts | 313° |
| 2026-05-04 01:58 | 37.19522 | -117.18478 | 27739 ft | 471 kts | 313° |
| 2026-05-04 01:58 | 37.21964 | -117.21204 | 27737 ft | 472 kts | 314° |
| 2026-05-04 01:58 | 37.24428 | -117.23958 | 27737 ft | 476 kts | 314° |
| 2026-05-04 01:59 | 37.26907 | -117.26732 | 27742 ft | 479 kts | 314° |
| 2026-05-04 01:59 | 37.29394 | -117.29525 | 27724 ft | 479 kts | 314° |
| 2026-05-04 01:59 | 37.31039 | -117.31371 | 27739 ft | 479 kts | 314° |
| 2026-05-04 01:59 | 37.33526 | -117.34156 | 27746 ft | 479 kts | 314° |
| 2026-05-04 02:00 | 37.36013 | -117.36940 | 27741 ft | 478 kts | 314° |
| 2026-05-04 02:00 | 37.39338 | -117.40666 | 27739 ft | 478 kts | 314° |
| 2026-05-04 02:00 | 37.40983 | -117.42514 | 27752 ft | 478 kts | 314° |
| 2026-05-04 02:00 | 37.43461 | -117.45302 | 27752 ft | 477 kts | 314° |
| 2026-05-04 02:01 | 37.45922 | -117.48107 | 27763 ft | 476 kts | 311° |
| 2026-05-04 02:01 | 37.47982 | -117.51327 | 27737 ft | 468 kts | 296° |
| 2026-05-04 02:01 | 37.49343 | -117.54951 | 27751 ft | 462 kts | 286° |
| 2026-05-04 02:01 | 37.50107 | -117.58853 | 27742 ft | 456 kts | 274° |
| 2026-05-04 02:02 | 37.50408 | -117.62830 | 27743 ft | 456 kts | 272° |
| 2026-05-04 02:02 | 37.50694 | -117.66808 | 27747 ft | 457 kts | 273° |
| 2026-05-04 02:02 | 37.50987 | -117.70803 | 27739 ft | 459 kts | 273° |
| 2026-05-04 02:02 | 37.51292 | -117.74811 | 27741 ft | 460 kts | 273° |
| 2026-05-04 02:03 | 37.51607 | -117.78836 | 27748 ft | 462 kts | 273° |
| 2026-05-04 02:03 | 37.51927 | -117.82865 | 27741 ft | 463 kts | 273° |
| 2026-05-04 02:03 | 37.52252 | -117.86909 | 27751 ft | 464 kts | 273° |
| 2026-05-04 02:03 | 37.52578 | -117.90949 | 27743 ft | 464 kts | 274° |
| 2026-05-04 02:04 | 37.52903 | -117.94996 | 27753 ft | 464 kts | 273° |
| 2026-05-04 02:04 | 37.53226 | -117.99038 | 27750 ft | 464 kts | 273° |
| 2026-05-04 02:04 | 37.53548 | -118.03085 | 27748 ft | 464 kts | 273° |
| 2026-05-04 02:04 | 37.53867 | -118.07127 | 27771 ft | 463 kts | 273° |
| 2026-05-04 02:05 | 37.54184 | -118.11161 | 27751 ft | 463 kts | 273° |
| 2026-05-04 02:05 | 37.54496 | -118.15149 | 27808 ft | 464 kts | 273° |
| 2026-05-04 02:05 | 37.54812 | -118.19198 | 27815 ft | 464 kts | 273° |
| 2026-05-04 02:05 | 37.55126 | -118.23246 | 27822 ft | 464 kts | 273° |
| 2026-05-04 02:06 | 37.55438 | -118.27292 | 27830 ft | 464 kts | 273° |
| 2026-05-04 02:06 | 37.55750 | -118.31347 | 27831 ft | 465 kts | 273° |
| 2026-05-04 02:06 | 37.56063 | -118.35425 | 27828 ft | 470 kts | 272° |
| 2026-05-04 02:06 | 37.56376 | -118.39545 | 27840 ft | 475 kts | 273° |
| 2026-05-04 02:07 | 37.56692 | -118.43704 | 27844 ft | 478 kts | 273° |
| 2026-05-04 02:07 | 37.57007 | -118.47877 | 27830 ft | 478 kts | 273° |
| 2026-05-04 02:07 | 37.57320 | -118.52047 | 27827 ft | 478 kts | 274° |
| 2026-05-04 02:07 | 37.57631 | -118.56217 | 27926 ft | 478 kts | 273° |
| 2026-05-04 02:08 | 37.57943 | -118.60397 | 27956 ft | 478 kts | 274° |
| 2026-05-04 02:08 | 37.58248 | -118.64518 | 27974 ft | 478 kts | 273° |
| 2026-05-04 02:08 | 37.58861 | -118.72860 | 28022 ft | 477 kts | 273° |
| 2026-05-04 02:09 | 37.59468 | -118.81197 | 28012 ft | 477 kts | 273° |
| 2026-05-04 02:09 | 37.60068 | -118.89511 | 28029 ft | 475 kts | 273° |
| 2026-05-04 02:10 | 37.60657 | -118.97792 | 28031 ft | 482 kts | 273° |
| 2026-05-04 02:10 | 37.61259 | -119.06349 | 27937 ft | 490 kts | 272° |
| 2026-05-04 02:11 | 37.61556 | -119.10583 | 27935 ft | 491 kts | 272° |
| 2026-05-04 02:11 | 37.61856 | -119.14885 | 27950 ft | 492 kts | 274° |
| 2026-05-04 02:11 | 37.62155 | -119.19179 | 27949 ft | 489 kts | 272° |
| 2026-05-04 02:11 | 37.62451 | -119.23451 | 27938 ft | 486 kts | 273° |
| 2026-05-04 02:12 | 37.62743 | -119.27689 | 27966 ft | 484 kts | 273° |
| 2026-05-04 02:12 | 37.63031 | -119.31923 | 27950 ft | 483 kts | 272° |
| 2026-05-04 02:12 | 37.63318 | -119.36145 | 27955 ft | 482 kts | 273° |
| 2026-05-04 02:12 | 37.63603 | -119.40354 | 27958 ft | 482 kts | 272° |
| 2026-05-04 02:13 | 37.63887 | -119.44564 | 27960 ft | 481 kts | 272° |
| 2026-05-04 02:13 | 37.64164 | -119.48718 | 27960 ft | 481 kts | 272° |
| 2026-05-04 02:13 | 37.64443 | -119.52920 | 27967 ft | 481 kts | 272° |
| 2026-05-04 02:13 | 37.64720 | -119.57127 | 27971 ft | 484 kts | 273° |
| 2026-05-04 02:14 | 37.64999 | -119.61390 | 27979 ft | 491 kts | 273° |
| 2026-05-04 02:14 | 37.65281 | -119.65713 | 27977 ft | 497 kts | 273° |
| 2026-05-04 02:14 | 37.65564 | -119.70063 | 27972 ft | 497 kts | 273° |
| 2026-05-04 02:14 | 37.65846 | -119.74419 | 27951 ft | 496 kts | 273° |
| 2026-05-04 02:15 | 37.66124 | -119.78753 | 27963 ft | 495 kts | 273° |
| 2026-05-04 02:15 | 37.66398 | -119.83032 | 27981 ft | 494 kts | 273° |
| 2026-05-04 02:15 | 37.66673 | -119.87361 | 27965 ft | 494 kts | 273° |
| 2026-05-04 02:15 | 37.66946 | -119.91684 | 27955 ft | 493 kts | 273° |
| 2026-05-04 02:16 | 37.67217 | -119.95992 | 27948 ft | 492 kts | 273° |
| 2026-05-04 02:16 | 37.67486 | -120.00299 | 27940 ft | 492 kts | 273° |
| 2026-05-04 02:16 | 37.67753 | -120.04601 | 27893 ft | 492 kts | 273° |
| 2026-05-04 02:16 | 37.68018 | -120.08906 | 27750 ft | 492 kts | 273° |
| 2026-05-04 02:17 | 37.68282 | -120.13204 | 27636 ft | 488 kts | 273° |
| 2026-05-04 02:17 | 37.68542 | -120.17467 | 27476 ft | 488 kts | 273° |
| 2026-05-04 02:17 | 37.68803 | -120.21783 | 27363 ft | 497 kts | 274° |
| 2026-05-04 02:17 | 37.69066 | -120.26168 | 27244 ft | 503 kts | 273° |
| 2026-05-04 02:18 | 37.69331 | -120.30586 | 27108 ft | 503 kts | 273° |
| 2026-05-04 02:18 | 37.69591 | -120.34927 | 26976 ft | 499 kts | 273° |
| 2026-05-04 02:18 | 37.69846 | -120.39283 | 26940 ft | 495 kts | 272° |
| 2026-05-04 02:18 | 37.69795 | -120.43605 | 26927 ft | 488 kts | 262° |
| 2026-05-04 02:19 | 37.69292 | -120.47819 | 26947 ft | 486 kts | 258° |
| 2026-05-04 02:19 | 37.68701 | -120.52028 | 26938 ft | 487 kts | 258° |
| 2026-05-04 02:19 | 37.68121 | -120.56246 | 26930 ft | 488 kts | 259° |
| 2026-05-04 02:19 | 37.67578 | -120.60480 | 26937 ft | 489 kts | 259° |
| 2026-05-04 02:20 | 37.67067 | -120.64727 | 26929 ft | 490 kts | 260° |
| 2026-05-04 02:20 | 37.66571 | -120.68990 | 26934 ft | 490 kts | 260° |
| 2026-05-04 02:20 | 37.66080 | -120.73195 | 26929 ft | 491 kts | 260° |
| 2026-05-04 02:20 | 37.65574 | -120.77465 | 26835 ft | 490 kts | 260° |
| 2026-05-04 02:21 | 37.65068 | -120.81684 | 26542 ft | 481 kts | 260° |
| 2026-05-04 02:21 | 37.64568 | -120.85822 | 26286 ft | 474 kts | 260° |
| 2026-05-04 02:21 | 37.64070 | -120.89932 | 26029 ft | 474 kts | 260° |
| 2026-05-04 02:21 | 37.63570 | -120.94057 | 25516 ft | 478 kts | 260° |
| 2026-05-04 02:22 | 37.63061 | -120.98187 | 25051 ft | 472 kts | 259° |
| 2026-05-04 02:22 | 37.62528 | -121.02245 | 24571 ft | 465 kts | 259° |
| 2026-05-04 02:22 | 37.61987 | -121.06238 | 24098 ft | 458 kts | 259° |
| 2026-05-04 02:22 | 37.61451 | -121.10175 | 23637 ft | 454 kts | 259° |
| 2026-05-04 02:23 | 37.60921 | -121.14086 | 23107 ft | 451 kts | 258° |
| 2026-05-04 02:23 | 37.60398 | -121.17958 | 22570 ft | 453 kts | 258° |
| 2026-05-04 02:23 | 37.59867 | -121.21908 | 22052 ft | 449 kts | 258° |
| 2026-05-04 02:23 | 37.59354 | -121.25714 | 21560 ft | 444 kts | 259° |
| 2026-05-04 02:24 | 37.58866 | -121.29517 | 21035 ft | 433 kts | 260° |
| 2026-05-04 02:24 | 37.58437 | -121.33229 | 20514 ft | 421 kts | 260° |
| 2026-05-04 02:24 | 37.58037 | -121.36829 | 19986 ft | 410 kts | 260° |
| 2026-05-04 02:24 | 37.57644 | -121.40351 | 19359 ft | 403 kts | 260° |
| 2026-05-04 02:25 | 37.57251 | -121.43819 | 18763 ft | 395 kts | 259° |
| 2026-05-04 02:25 | 37.56861 | -121.47218 | 18167 ft | 389 kts | 259° |
| 2026-05-04 02:25 | 37.56469 | -121.50586 | 17518 ft | 388 kts | 259° |
| 2026-05-04 02:25 | 37.56079 | -121.53944 | 16858 ft | 385 kts | 259° |
| 2026-05-04 02:26 | 37.55691 | -121.57261 | 16207 ft | 379 kts | 260° |
| 2026-05-04 02:26 | 37.55308 | -121.60526 | 15585 ft | 374 kts | 260° |
| 2026-05-04 02:26 | 37.54882 | -121.63737 | 14983 ft | 369 kts | 256° |
| 2026-05-04 02:26 | 37.54190 | -121.66824 | 14384 ft | 364 kts | 251° |
| 2026-05-04 02:27 | 37.53401 | -121.69836 | 13792 ft | 359 kts | 251° |
| 2026-05-04 02:27 | 37.52633 | -121.72815 | 13129 ft | 355 kts | 251° |
| 2026-05-04 02:27 | 37.51914 | -121.75732 | 12496 ft | 351 kts | 251° |
| 2026-05-04 02:27 | 37.51209 | -121.78659 | 11888 ft | 347 kts | 251° |
| 2026-05-04 02:28 | 37.50516 | -121.81559 | 11305 ft | 336 kts | 251° |
| 2026-05-04 02:28 | 37.49861 | -121.84299 | 10688 ft | 326 kts | 251° |
| 2026-05-04 02:28 | 37.49264 | -121.87020 | 10065 ft | 319 kts | 259° |
| 2026-05-04 02:28 | 37.49354 | -121.89785 | 9420 ft | 315 kts | 278° |
| 2026-05-04 02:29 | 37.49769 | -121.92466 | 8774 ft | 309 kts | 279° |
| 2026-05-04 02:29 | 37.50192 | -121.95101 | 8142 ft | 304 kts | 279° |
| 2026-05-04 02:29 | 37.50607 | -121.97711 | 7356 ft | 305 kts | 278° |
| 2026-05-04 02:29 | 37.51021 | -122.00360 | 6540 ft | 309 kts | 278° |
| 2026-05-04 02:30 | 37.51430 | -122.03008 | 5804 ft | 307 kts | 278° |
| 2026-05-04 02:30 | 37.51827 | -122.05606 | 5063 ft | 304 kts | 279° |
| 2026-05-04 02:30 | 37.52221 | -122.08195 | 4301 ft | 299 kts | 279° |
| 2026-05-04 02:30 | 37.52609 | -122.10749 | 3538 ft | 294 kts | 279° |
| 2026-05-04 02:31 | 37.52985 | -122.13246 | 2948 ft | 282 kts | 279° |
| 2026-05-04 02:31 | 37.53331 | -122.15534 | 2948 ft | 252 kts | 279° |
| 2026-05-04 02:31 | 37.53690 | -122.17628 | 2665 ft | 238 kts | 286° |
| 2026-05-04 02:31 | 37.54421 | -122.19441 | 2420 ft | 225 kts | 297° |
| 2026-05-04 02:32 | 37.55158 | -122.21079 | 2146 ft | 205 kts | 295° |
| 2026-05-04 02:32 | 37.55813 | -122.22589 | 1860 ft | 189 kts | 295° |
| 2026-05-04 02:32 | 37.56413 | -122.23990 | 1583 ft | 175 kts | 296° |
| 2026-05-04 02:32 | 37.56968 | -122.25295 | 1305 ft | 163 kts | 295° |
| 2026-05-04 02:33 | 37.57482 | -122.26506 | 1125 ft | 151 kts | 294° |
| 2026-05-04 02:33 | 37.57959 | -122.27635 | 1013 ft | 144 kts | 293° |
| 2026-05-04 02:33 | 37.58430 | -122.28754 | 1038 ft | 144 kts | 293° |
| 2026-05-04 02:33 | 37.58925 | -122.29880 | 1029 ft | 147 kts | 295° |
| 2026-05-04 02:34 | 37.59443 | -122.30998 | 871 ft | 149 kts | 295° |
| 2026-05-04 02:34 | 37.59918 | -122.32146 | 653 ft | 144 kts | 294° |
| 2026-05-04 02:34 | 37.60351 | -122.33272 | 470 ft | 142 kts | 292° |
| 2026-05-04 02:34 | 37.60801 | -122.34367 | 319 ft | 140 kts | 293° |
| 2026-05-04 02:35 | 37.61259 | -122.35468 | 102 ft | 144 kts | 292° |
| 2026-05-04 02:35 | 37.61705 | -122.36536 | 28 ft | 127 kts | 291° |
| 2026-05-04 02:35 | 37.62114 | -122.37482 | 20 ft | 128 kts | 288° |
| 2026-05-04 02:35 | 37.62498 | -122.38441 | 18 ft | 91 kts | 298° |
| 2026-05-04 02:36 | 37.62719 | -122.38977 | 21 ft | 55 kts | 297° |
| 2026-05-04 02:36 | 37.62797 | -122.39389 | 19 ft | 43 kts | 243° |
| 2026-05-04 02:36 | 37.62629 | -122.39335 | 17 ft | 29 kts | 120° |
| 2026-05-04 02:36 | 37.62463 | -122.38954 | 17 ft | 33 kts | 119° |
| 2026-05-04 02:37 | 37.62450 | -122.38930 | 16 ft | 9 kts | 154° |
| 2026-05-04 02:37 | 37.62460 | -122.38935 | 18 ft | 1 kts | 154° |
| 2026-05-04 02:37 | 37.62448 | -122.38926 | 16 ft | 9 kts | 147° |
| 2026-05-04 02:37 | 37.62230 | -122.38939 | 13 ft | 35 kts | 217° |
| 2026-05-04 02:38 | 37.62169 | -122.38990 | 13 ft | 5 kts | 206° |
| 2026-05-04 02:38 | 37.62159 | -122.38996 | 13 ft | 0 kts | 206° |